createdAt,value
2018-11-06T00:00:04.820Z,10.60
2018-11-06T00:02:32.188Z,10.60
2018-11-06T00:05:05.159Z,10.60
2018-11-06T00:07:32.539Z,10.60
2018-11-06T00:09:59.977Z,10.60
2018-11-06T00:12:28.076Z,10.50
2018-11-06T00:14:57.456Z,10.50
2018-11-06T00:17:24.844Z,10.50
2018-11-06T00:19:52.320Z,10.40
2018-11-06T00:22:19.672Z,10.40
2018-11-06T00:24:47.175Z,10.40
2018-11-06T00:27:14.515Z,10.40
2018-11-06T00:29:41.930Z,10.40
2018-11-06T00:32:09.300Z,10.40
2018-11-06T00:34:36.740Z,10.40
2018-11-06T00:37:04.215Z,10.40
2018-11-06T00:39:31.685Z,10.50
2018-11-06T00:41:59.131Z,10.40
2018-11-06T00:44:26.596Z,10.40
2018-11-06T00:46:54.045Z,10.40
2018-11-06T00:49:21.508Z,10.40
2018-11-06T00:51:48.872Z,10.40
2018-11-06T00:54:16.216Z,10.40
2018-11-06T00:56:43.681Z,10.40
2018-11-06T00:59:11.085Z,10.30
2018-11-06T01:01:38.439Z,10.30
2018-11-06T01:04:06.841Z,10.30
2018-11-06T01:06:34.311Z,10.30
2018-11-06T01:09:01.896Z,10.20
2018-11-06T01:11:29.540Z,10.30
2018-11-06T01:13:56.980Z,10.20
2018-11-06T01:16:24.355Z,10.20
2018-11-06T01:18:51.941Z,10.20
2018-11-06T01:21:19.404Z,10.20
2018-11-06T01:23:46.752Z,10.20
2018-11-06T01:26:14.112Z,10.20
2018-11-06T01:28:41.493Z,10.20
2018-11-06T01:31:08.904Z,10.20
2018-11-06T01:33:36.343Z,10.20
2018-11-06T01:36:03.811Z,10.20
2018-11-06T01:38:31.248Z,10.20
2018-11-06T01:40:58.779Z,10.20
2018-11-06T01:43:26.128Z,10.20
2018-11-06T01:45:53.512Z,10.30
2018-11-06T01:48:20.900Z,10.30
2018-11-06T01:50:48.264Z,10.30
2018-11-06T01:53:15.755Z,10.30
2018-11-06T01:55:43.160Z,10.30
2018-11-06T01:58:10.600Z,10.30
2018-11-06T02:00:37.965Z,10.30
2018-11-06T02:03:05.484Z,10.30
2018-11-06T02:05:32.899Z,10.30
2018-11-06T02:08:00.323Z,10.20
2018-11-06T02:10:27.684Z,10.10
2018-11-06T02:12:55.049Z,10.10
2018-11-06T02:15:22.391Z,10.20
2018-11-06T02:17:49.751Z,10.20
2018-11-06T02:20:17.285Z,10.10
2018-11-06T02:22:46.160Z,10.10
2018-11-06T02:25:13.804Z,10.10
2018-11-06T02:27:41.172Z,10.20
2018-11-06T02:30:09.847Z,10.20
2018-11-06T02:32:37.388Z,10.20
2018-11-06T02:35:05.332Z,10.20
2018-11-06T02:37:32.724Z,10.10
2018-11-06T02:40:00.185Z,10.10
2018-11-06T02:42:27.681Z,10.10
2018-11-06T02:44:55.097Z,10.10
2018-11-06T02:47:22.558Z,10.10
2018-11-06T02:49:49.924Z,10.00
2018-11-06T02:52:17.296Z,10.00
2018-11-06T02:54:44.736Z,10.10
2018-11-06T02:57:12.160Z,10.00
2018-11-06T02:59:39.503Z,10.00
2018-11-06T03:02:06.981Z,10.00
2018-11-06T03:04:34.345Z,10.00
2018-11-06T03:07:01.720Z,9.90
2018-11-06T03:09:29.151Z,9.90
2018-11-06T03:11:56.627Z,9.90
2018-11-06T03:14:24.187Z,9.90
2018-11-06T03:16:51.576Z,9.80
2018-11-06T03:19:18.908Z,9.80
2018-11-06T03:21:51.807Z,9.80
2018-11-06T03:26:58.038Z,9.70
2018-11-06T03:29:37.815Z,9.60
2018-11-06T03:32:30.631Z,9.60
2018-11-06T03:35:03.751Z,9.60
2018-11-06T03:37:41.445Z,9.60
2018-11-06T03:40:13.783Z,9.60
2018-11-06T03:42:54.087Z,9.60
2018-11-06T03:45:36.070Z,9.50
2018-11-06T03:48:14.193Z,9.50
2018-11-06T03:50:44.370Z,9.50
2018-11-06T03:53:23.448Z,9.40
2018-11-06T03:58:55.937Z,9.40
2018-11-06T04:01:39.167Z,9.30
2018-11-06T04:04:22.754Z,9.30
2018-11-06T04:07:02.461Z,9.30
2018-11-06T04:09:36.819Z,9.30
2018-11-06T04:12:08.323Z,9.30
2018-11-06T04:14:42.045Z,9.20
2018-11-06T04:17:26.557Z,9.20
2018-11-06T04:20:05.718Z,9.10
2018-11-06T04:22:37.240Z,9.10
2018-11-06T04:25:43.620Z,9.10
2018-11-06T04:28:30.148Z,9.10
2018-11-06T04:31:05.966Z,9.10
2018-11-06T04:36:49.418Z,9.10
2018-11-06T04:52:33.145Z,8.90
2018-11-06T05:09:51.478Z,8.80
2018-11-06T05:12:23.034Z,8.80
2018-11-06T05:14:57.584Z,8.80
2018-11-06T05:17:37.712Z,8.70
2018-11-06T05:22:24.942Z,8.70
2018-11-06T05:25:04.148Z,8.60
2018-11-06T05:27:46.585Z,8.60
2018-11-06T05:30:21.027Z,8.60
2018-11-06T05:32:56.401Z,8.60
2018-11-06T05:35:45.073Z,8.60
2018-11-06T05:38:20.853Z,8.60
2018-11-06T05:41:05.002Z,8.60
2018-11-06T05:43:41.879Z,8.60
2018-11-06T05:46:16.679Z,8.60
2018-11-06T05:48:55.188Z,8.60
2018-11-06T05:51:32.483Z,8.60
2018-11-06T05:54:03.831Z,8.60
2018-11-06T05:56:38.592Z,8.50
2018-11-06T05:59:16.385Z,8.50
2018-11-06T06:01:54.906Z,8.50
2018-11-06T06:12:15.141Z,8.50
2018-11-06T06:14:51.888Z,8.40
2018-11-06T06:20:10.792Z,8.50
2018-11-06T06:41:19.097Z,8.60
2018-11-06T06:43:53.312Z,8.70
2018-11-06T06:46:24.923Z,8.70
2018-11-06T06:48:56.172Z,8.80
2018-11-06T06:51:29.466Z,8.80
2018-11-06T06:54:09.060Z,8.80
2018-11-06T06:56:39.860Z,8.90
2018-11-06T06:59:13.100Z,9.00
2018-11-06T07:01:44.415Z,9.00
2018-11-06T07:04:16.366Z,9.10
2018-11-06T07:06:50.113Z,9.20
2018-11-06T07:09:27.913Z,9.30
2018-11-06T07:11:59.773Z,9.30
2018-11-06T07:14:29.107Z,9.40
2018-11-06T07:17:00.601Z,9.50
2018-11-06T07:19:31.949Z,9.50
2018-11-06T07:22:13.334Z,9.60
2018-11-06T07:24:44.912Z,9.60
2018-11-06T07:27:20.442Z,9.70
2018-11-06T07:29:56.021Z,9.80
2018-11-06T07:32:34.118Z,9.90
2018-11-06T07:35:09.980Z,10.00
2018-11-06T07:37:44.280Z,10.10
2018-11-06T07:40:17.496Z,10.20
2018-11-06T07:48:32.629Z,10.50
2018-11-06T07:51:04.414Z,10.60
2018-11-06T07:53:39.362Z,10.70
2018-11-06T07:56:11.566Z,10.90
2018-11-06T07:59:00.167Z,10.90
2018-11-06T08:01:35.001Z,11.10
2018-11-06T08:04:09.816Z,11.10
2018-11-06T08:06:49.317Z,11.20
2018-11-06T08:09:24.235Z,11.30
2018-11-06T08:11:57.412Z,11.40
2018-11-06T08:14:34.246Z,11.50
2018-11-06T08:17:08.414Z,11.60
2018-11-06T08:19:44.986Z,11.70
2018-11-06T08:22:19.510Z,11.70
2018-11-06T08:28:02.411Z,11.90
2018-11-06T08:33:20.183Z,12.10
2018-11-06T08:38:35.585Z,12.30
2018-11-06T08:43:57.759Z,12.50
2018-11-06T08:51:02.614Z,12.70
2018-11-06T08:56:30.407Z,12.90
2018-11-06T09:04:57.849Z,13.30
2018-11-06T09:09:44.442Z,13.40
2018-11-06T09:12:25.340Z,13.50
2018-11-06T09:15:15.530Z,13.60
2018-11-06T09:17:46.980Z,13.70
2018-11-06T09:20:30.268Z,13.80
2018-11-06T09:23:06.657Z,13.90
2018-11-06T09:25:43.268Z,14.00
2018-11-06T09:28:22.566Z,14.00
2018-11-06T09:30:52.835Z,14.10
2018-11-06T09:33:22.706Z,14.20
2018-11-06T09:35:59.595Z,14.30
2018-11-06T09:38:40.979Z,14.40
2018-11-06T09:41:23.351Z,14.50
2018-11-06T09:43:54.629Z,14.50
2018-11-06T09:46:28.948Z,14.50
2018-11-06T09:51:48.117Z,14.70
2018-11-06T10:07:43.448Z,14.80
2018-11-06T10:13:09.728Z,15.00
2018-11-06T10:18:22.533Z,15.20
2018-11-06T10:21:04.107Z,15.20
2018-11-06T10:29:42.676Z,15.30
2018-11-06T10:32:13.422Z,15.40
2018-11-06T10:34:43.837Z,15.50
2018-11-06T10:50:56.713Z,15.80
2018-11-06T11:08:27.516Z,15.90
2018-11-06T11:11:24.121Z,16.00
2018-11-06T11:13:56.799Z,16.00
2018-11-06T11:16:38.898Z,16.10
2018-11-06T11:19:13.058Z,16.10
2018-11-06T11:21:50.281Z,16.10
2018-11-06T11:24:20.419Z,16.10
2018-11-06T11:26:52.261Z,16.10
2018-11-06T11:29:28.235Z,16.20
2018-11-06T11:32:02.979Z,16.30
2018-11-06T11:34:39.653Z,16.30
2018-11-06T11:37:15.389Z,16.30
2018-11-06T11:45:17.394Z,16.40
2018-11-06T11:47:48.821Z,16.40
2018-11-06T11:50:20.153Z,16.50
2018-11-06T11:58:11.725Z,16.40
2018-11-06T12:00:42.781Z,16.50
2018-11-06T12:03:19.557Z,16.50
2018-11-06T12:05:52.726Z,16.50
2018-11-06T12:08:27.681Z,16.50
2018-11-06T12:10:58.210Z,16.50
2018-11-06T12:13:30.872Z,16.50
2018-11-06T12:16:04.271Z,16.50
2018-11-06T12:21:29.407Z,16.60
2018-11-06T12:24:37.018Z,16.60
2018-11-06T12:27:08.248Z,16.60
2018-11-06T12:31:46.986Z,16.60
2018-11-06T12:37:05.340Z,16.70
2018-11-06T12:42:22.997Z,16.70
2018-11-06T12:47:40.609Z,16.80
2018-11-06T12:52:57.983Z,16.90
2018-11-06T13:01:34.407Z,16.80
2018-11-06T13:04:17.712Z,16.80
2018-11-06T13:06:57.514Z,16.80
2018-11-06T13:09:31.460Z,16.70
2018-11-06T13:11:58.955Z,16.70
2018-11-06T13:17:12.640Z,16.60
2018-11-06T13:19:39.930Z,16.60
2018-11-06T13:27:31.632Z,16.50
2018-11-06T13:46:52.915Z,16.30
2018-11-06T14:00:26.380Z,16.10
2018-11-06T14:02:55.475Z,16.10
2018-11-06T14:08:31.465Z,16.00
2018-11-06T14:11:01.777Z,16.00
2018-11-06T14:21:32.565Z,15.80
2018-11-06T14:24:03.939Z,15.80
2018-11-06T14:26:31.844Z,15.70
2018-11-06T14:42:26.457Z,15.70
2018-11-06T15:06:56.117Z,15.00
2018-11-06T15:09:57.160Z,14.90
2018-11-06T15:12:31.813Z,14.80
2018-11-06T15:15:07.808Z,14.60
2018-11-06T15:17:35.259Z,14.60
2018-11-06T15:20:05.384Z,14.50
2018-11-06T15:25:31.266Z,14.40
2018-11-06T15:27:58.697Z,14.40
2018-11-06T15:51:15.339Z,14.00
2018-11-06T15:53:45.282Z,13.70
2018-11-06T15:56:12.698Z,13.70
2018-11-06T16:05:23.687Z,13.60
2018-11-06T16:07:51.522Z,13.60
2018-11-06T16:16:17.733Z,13.50
2018-11-06T16:18:45.143Z,13.50
2018-11-06T16:21:12.592Z,13.60
2018-11-06T16:23:40.083Z,13.60
2018-11-06T16:26:07.989Z,13.60
2018-11-06T16:28:35.494Z,13.60
2018-11-06T16:31:03.957Z,13.70
2018-11-06T16:36:35.482Z,13.60
2018-11-06T16:39:51.472Z,13.50
2018-11-06T16:42:18.861Z,13.50
2018-11-06T16:47:34.658Z,13.50
2018-11-06T16:50:02.058Z,13.50
2018-11-06T16:53:01.176Z,13.50
2018-11-06T16:55:28.657Z,13.40
2018-11-06T16:57:56.107Z,13.40
2018-11-06T17:00:25.237Z,13.40
2018-11-06T17:02:52.417Z,13.50
2018-11-06T17:05:19.784Z,13.50
2018-11-06T17:07:48.576Z,13.50
2018-11-06T17:10:16.504Z,13.40
2018-11-06T17:12:44.885Z,13.40
2018-11-06T17:15:15.009Z,13.30
2018-11-06T17:17:42.862Z,13.20
2018-11-06T17:20:11.480Z,13.10
2018-11-06T17:22:38.882Z,13.10
2018-11-06T17:25:06.987Z,13.10
2018-11-06T17:27:34.404Z,13.10
2018-11-06T17:30:01.909Z,13.10
2018-11-06T17:32:29.354Z,13.00
2018-11-06T17:37:31.036Z,12.90
2018-11-06T17:39:58.474Z,12.90
2018-11-06T17:42:25.862Z,12.90
2018-11-06T17:44:53.383Z,12.80
2018-11-06T17:47:20.829Z,12.80
2018-11-06T17:49:48.499Z,12.80
2018-11-06T17:52:15.972Z,12.70
2018-11-06T17:54:43.523Z,12.70
2018-11-06T17:57:10.976Z,12.70
2018-11-06T17:59:38.375Z,12.70
2018-11-06T18:02:05.926Z,12.60
2018-11-06T18:04:33.545Z,12.60
2018-11-06T18:07:00.801Z,12.60
2018-11-06T18:09:28.280Z,12.60
2018-11-06T18:11:55.738Z,12.50
2018-11-06T18:14:23.091Z,12.50
2018-11-06T18:16:50.451Z,12.50
2018-11-06T18:19:17.882Z,12.50
2018-11-06T18:21:45.264Z,12.40
2018-11-06T18:24:13.034Z,12.40
2018-11-06T18:26:40.536Z,12.40
2018-11-06T18:29:07.848Z,12.30
2018-11-06T18:31:35.254Z,12.30
2018-11-06T18:34:02.617Z,12.30
2018-11-06T18:36:30.014Z,12.30
2018-11-06T18:38:57.432Z,12.30
2018-11-06T18:41:24.809Z,12.20
2018-11-06T18:43:52.153Z,12.20
2018-11-06T18:46:19.566Z,12.10
2018-11-06T18:48:46.978Z,12.10
2018-11-06T18:51:14.383Z,12.10
2018-11-06T18:53:41.738Z,12.00
2018-11-06T18:56:09.135Z,12.10
2018-11-06T18:58:36.654Z,12.10
2018-11-06T19:01:04.005Z,12.10
2018-11-06T19:03:31.374Z,12.00
2018-11-06T19:05:58.772Z,12.00
2018-11-06T19:08:26.240Z,11.90
2018-11-06T19:10:53.663Z,11.90
2018-11-06T19:13:21.163Z,11.90
2018-11-06T19:15:48.552Z,11.80
2018-11-06T19:18:15.905Z,11.80
2018-11-06T19:20:43.356Z,11.90
2018-11-06T19:23:10.739Z,11.90
2018-11-06T19:25:38.137Z,11.90
2018-11-06T19:28:05.912Z,11.90
2018-11-06T19:30:33.481Z,11.90
2018-11-06T19:33:00.879Z,11.90
2018-11-06T19:35:28.371Z,11.90
2018-11-06T19:37:55.718Z,11.90
2018-11-06T19:40:23.210Z,11.80
2018-11-06T19:42:51.733Z,11.90
2018-11-06T19:45:19.130Z,11.80
2018-11-06T19:47:46.593Z,11.80
2018-11-06T19:50:15.506Z,11.70
2018-11-06T19:55:11.640Z,11.70
2018-11-06T20:11:23.093Z,11.50
2018-11-06T20:16:41.919Z,11.50
2018-11-06T20:19:09.332Z,11.50
2018-11-06T20:21:36.814Z,11.50
2018-11-06T20:24:04.227Z,11.50
2018-11-06T20:26:31.708Z,11.50
2018-11-06T20:28:59.187Z,11.50
2018-11-06T20:31:26.644Z,11.50
2018-11-06T20:33:54.183Z,11.40
2018-11-06T20:36:21.660Z,11.50
2018-11-06T20:38:49.058Z,11.40
2018-11-06T20:41:16.567Z,11.30
2018-11-06T21:00:23.110Z,11.20
2018-11-06T21:02:51.535Z,11.20
2018-11-06T21:05:19.048Z,11.20
2018-11-06T21:07:47.063Z,11.20
2018-11-06T21:10:15.114Z,11.20
2018-11-06T21:12:42.523Z,11.20
2018-11-06T21:15:10.530Z,11.20
2018-11-06T21:17:38.090Z,11.20
2018-11-06T21:20:06.401Z,11.20
2018-11-06T21:22:33.839Z,11.20
2018-11-06T21:25:01.346Z,11.10
2018-11-06T21:27:28.750Z,11.10
2018-11-06T21:41:01.582Z,10.90
2018-11-06T21:46:14.340Z,10.80
2018-11-06T21:48:41.817Z,10.80
2018-11-06T21:51:09.239Z,10.80
2018-11-06T21:53:36.711Z,10.80
2018-11-06T21:56:04.467Z,10.80
2018-11-06T21:58:31.951Z,10.80
2018-11-06T22:02:14.739Z,10.70
2018-11-06T22:04:42.209Z,10.70
2018-11-06T22:07:09.664Z,10.70
2018-11-06T22:09:37.024Z,10.70
2018-11-06T22:12:04.595Z,10.70
2018-11-06T22:14:32.032Z,10.70
2018-11-06T22:27:58.711Z,10.70
2018-11-06T22:33:10.747Z,10.60
2018-11-06T22:35:38.104Z,10.60
2018-11-06T22:38:05.681Z,10.60
2018-11-06T22:40:33.891Z,10.50
2018-11-06T22:43:01.402Z,10.50
2018-11-06T22:45:28.836Z,10.50
2018-11-06T22:47:56.310Z,10.50
2018-11-06T22:53:43.072Z,10.50
2018-11-06T22:58:54.877Z,10.50
2018-11-06T23:01:22.317Z,10.50
2018-11-06T23:03:49.795Z,10.50
2018-11-06T23:06:17.646Z,10.50
2018-11-06T23:08:44.953Z,10.50
2018-11-06T23:27:33.986Z,10.40
2018-11-06T23:30:01.348Z,10.30
2018-11-06T23:32:28.769Z,10.30
2018-11-06T23:34:56.250Z,10.30
2018-11-06T23:37:23.626Z,10.30
2018-11-06T23:39:51.201Z,10.30
2018-11-06T23:42:18.611Z,10.30
2018-11-06T23:44:46.080Z,10.30
2018-11-06T23:47:13.433Z,10.30
2018-11-06T23:49:40.814Z,10.30
2018-11-06T23:52:08.183Z,10.30
2018-11-06T23:54:35.563Z,10.30
2018-11-06T23:57:02.927Z,10.30
